createdAt,value
2023-02-17T00:01:33.430Z,12.57
2023-02-17T00:04:01.099Z,12.60
2023-02-17T00:06:30.642Z,12.51
2023-02-17T00:08:59.582Z,12.45
2023-02-17T00:11:28.549Z,12.41
2023-02-17T00:13:56.623Z,12.41
2023-02-17T00:16:26.273Z,12.40
2023-02-17T00:18:59.769Z,12.40
2023-02-17T00:21:30.097Z,12.44
2023-02-17T00:23:58.526Z,12.48
2023-02-17T00:26:26.062Z,12.46
2023-02-17T00:28:53.630Z,12.55
2023-02-17T00:31:23.042Z,12.56
2023-02-17T00:33:54.684Z,12.56
2023-02-17T00:36:22.208Z,12.56
2023-02-17T00:38:49.989Z,12.56
2023-02-17T00:41:18.318Z,12.55
2023-02-17T00:43:46.253Z,12.55
2023-02-17T00:46:14.237Z,12.59
2023-02-17T00:48:42.109Z,12.60
2023-02-17T00:51:10.373Z,12.62
2023-02-17T00:53:37.997Z,12.73
2023-02-17T00:56:08.676Z,12.70
2023-02-17T00:58:36.832Z,12.67
2023-02-17T01:01:04.709Z,12.62
2023-02-17T01:03:32.483Z,12.50
2023-02-17T01:06:05.108Z,12.53
2023-02-17T01:08:34.588Z,12.48
2023-02-17T01:11:02.306Z,12.47
2023-02-17T01:13:29.926Z,12.41
2023-02-17T01:15:57.483Z,12.44
2023-02-17T01:18:25.434Z,12.43
2023-02-17T01:20:53.018Z,12.51
2023-02-17T01:23:20.711Z,12.43
2023-02-17T01:25:50.631Z,12.46
2023-02-17T01:28:21.141Z,12.41
2023-02-17T01:30:49.942Z,12.38
2023-02-17T01:33:17.339Z,12.32
2023-02-17T01:35:45.925Z,12.29
2023-02-17T01:38:13.315Z,12.36
2023-02-17T01:40:48.358Z,12.37
2023-02-17T01:43:17.785Z,12.37
2023-02-17T01:45:53.709Z,12.31
2023-02-17T01:48:31.125Z,12.31
2023-02-17T01:51:19.906Z,12.43
2023-02-17T01:53:53.317Z,12.36
2023-02-17T01:56:23.211Z,12.44
2023-02-17T01:58:55.798Z,12.41
2023-02-17T02:01:23.621Z,12.41
2023-02-17T02:03:52.590Z,12.37
2023-02-17T02:06:24.353Z,12.35
2023-02-17T02:09:06.959Z,12.34
2023-02-17T02:11:35.894Z,12.40
2023-02-17T02:14:06.950Z,12.46
2023-02-17T02:16:39.268Z,12.43
2023-02-17T02:19:31.485Z,12.43
2023-02-17T02:22:40.173Z,12.38
2023-02-17T02:25:29.541Z,12.35
2023-02-17T02:28:31.017Z,12.31
2023-02-17T02:31:27.559Z,12.29
2023-02-17T02:34:06.545Z,12.42
2023-02-17T02:36:49.863Z,12.30
2023-02-17T02:39:20.161Z,12.31
2023-02-17T02:41:53.277Z,12.30
2023-02-17T02:44:21.815Z,12.33
2023-02-17T02:46:58.559Z,12.39
2023-02-17T02:49:26.792Z,12.38
2023-02-17T02:52:03.734Z,12.36
2023-02-17T02:54:42.430Z,12.33
2023-02-17T02:57:18.483Z,12.30
2023-02-17T02:59:55.929Z,12.24
2023-02-17T03:02:52.605Z,12.18
2023-02-17T03:05:51.840Z,12.35
2023-02-17T03:08:41.561Z,12.34
2023-02-17T03:11:09.617Z,12.32
2023-02-17T03:13:41.144Z,12.31
2023-02-17T03:16:14.647Z,12.32
2023-02-17T03:18:42.408Z,12.37
2023-02-17T03:21:16.073Z,12.33
2023-02-17T03:23:43.815Z,12.24
2023-02-17T03:26:11.292Z,12.29
2023-02-17T03:28:38.781Z,12.34
2023-02-17T03:31:06.283Z,12.35
2023-02-17T03:33:34.157Z,12.31
2023-02-17T03:36:01.562Z,12.29
2023-02-17T03:38:29.052Z,12.32
2023-02-17T03:40:56.497Z,12.25
2023-02-17T03:43:23.958Z,12.25
2023-02-17T03:45:51.381Z,12.29
2023-02-17T03:48:18.776Z,12.32
2023-02-17T03:50:46.092Z,12.29
2023-02-17T03:53:13.477Z,12.28
2023-02-17T03:55:40.851Z,12.31
2023-02-17T03:58:08.276Z,12.26
2023-02-17T04:00:35.758Z,12.26
2023-02-17T04:03:03.245Z,12.22
2023-02-17T04:05:30.752Z,12.18
2023-02-17T04:07:58.299Z,12.21
2023-02-17T04:10:25.806Z,12.22
2023-02-17T04:12:53.420Z,12.18
2023-02-17T04:15:20.894Z,12.20
2023-02-17T04:17:48.333Z,12.15
2023-02-17T04:20:15.586Z,12.29
2023-02-17T04:22:42.984Z,12.25
2023-02-17T04:25:10.348Z,12.26
2023-02-17T04:27:37.605Z,12.28
2023-02-17T04:30:07.092Z,12.19
2023-02-17T04:32:34.618Z,12.15
2023-02-17T04:35:02.196Z,12.13
2023-02-17T04:37:29.796Z,12.20
2023-02-17T04:39:57.223Z,12.22
2023-02-17T04:42:24.722Z,12.24
2023-02-17T04:44:52.206Z,12.14
2023-02-17T04:47:19.638Z,12.18
2023-02-17T04:49:46.866Z,12.19
2023-02-17T04:52:14.209Z,12.17
2023-02-17T04:54:41.563Z,12.17
2023-02-17T04:57:09.108Z,12.11
2023-02-17T04:59:36.732Z,12.01
2023-02-17T05:02:05.129Z,12.03
2023-02-17T05:04:32.781Z,12.09
2023-02-17T05:07:00.539Z,12.10
2023-02-17T05:09:28.087Z,12.09
2023-02-17T05:11:55.760Z,12.08
2023-02-17T05:14:23.352Z,12.02
2023-02-17T05:16:50.832Z,12.01
2023-02-17T05:19:18.205Z,12.05
2023-02-17T05:21:45.656Z,12.02
2023-02-17T05:24:12.898Z,11.97
2023-02-17T05:26:40.294Z,12.00
2023-02-17T05:29:07.769Z,12.08
2023-02-17T05:31:35.688Z,12.09
2023-02-17T05:34:03.202Z,12.06
2023-02-17T05:36:30.801Z,12.13
2023-02-17T05:38:58.258Z,12.07
2023-02-17T05:41:25.732Z,11.99
2023-02-17T05:43:53.357Z,11.98
2023-02-17T05:46:20.904Z,12.00
2023-02-17T05:48:48.756Z,11.95
2023-02-17T05:51:18.920Z,11.91
2023-02-17T05:53:46.379Z,11.93
2023-02-17T05:56:14.049Z,11.99
2023-02-17T05:58:41.448Z,11.95
2023-02-17T06:01:10.258Z,11.94
2023-02-17T06:03:38.135Z,11.94
2023-02-17T06:06:07.518Z,11.94
2023-02-17T06:08:36.151Z,11.92
2023-02-17T06:11:04.145Z,11.93
2023-02-17T06:13:31.664Z,11.93
2023-02-17T06:15:59.631Z,11.96
2023-02-17T06:18:27.242Z,11.95
2023-02-17T06:20:58.403Z,11.96
2023-02-17T06:23:26.732Z,11.99
2023-02-17T06:25:54.847Z,12.00
2023-02-17T06:28:22.741Z,11.96
2023-02-17T06:30:50.165Z,11.95
2023-02-17T06:33:17.618Z,11.95
2023-02-17T06:35:49.797Z,12.02
2023-02-17T06:38:17.615Z,12.12
2023-02-17T06:40:45.435Z,12.03
2023-02-17T06:43:12.953Z,12.00
2023-02-17T06:45:40.401Z,11.99
2023-02-17T06:48:08.016Z,12.02
2023-02-17T06:50:35.447Z,12.04
2023-02-17T06:53:03.157Z,12.10
2023-02-17T06:55:30.697Z,12.16
2023-02-17T06:57:58.144Z,12.14
2023-02-17T07:00:27.120Z,12.12
2023-02-17T07:02:54.781Z,12.14
2023-02-17T07:05:22.351Z,12.11
2023-02-17T07:07:49.954Z,12.07
2023-02-17T07:10:17.500Z,12.08
2023-02-17T07:12:44.932Z,12.09
2023-02-17T07:15:12.629Z,12.15
2023-02-17T07:17:40.069Z,12.27
2023-02-17T07:20:09.357Z,12.34
2023-02-17T07:22:36.995Z,12.34
2023-02-17T07:25:05.402Z,12.29
2023-02-17T07:27:36.075Z,12.36
2023-02-17T07:30:05.010Z,12.30
2023-02-17T07:32:32.589Z,12.25
2023-02-17T07:35:00.364Z,12.25
2023-02-17T07:37:28.086Z,12.25
2023-02-17T07:39:57.351Z,12.30
2023-02-17T07:42:27.719Z,12.32
2023-02-17T07:44:55.710Z,12.35
2023-02-17T07:47:23.359Z,12.34
2023-02-17T07:49:50.895Z,12.31
2023-02-17T07:52:18.704Z,12.32
2023-02-17T07:54:46.166Z,12.44
2023-02-17T07:57:13.467Z,12.44
2023-02-17T07:59:41.042Z,12.47
2023-02-17T08:02:14.845Z,12.45
2023-02-17T08:04:42.646Z,12.38
2023-02-17T08:07:10.386Z,12.49
2023-02-17T08:09:56.531Z,12.40
2023-02-17T08:12:43.936Z,12.47
2023-02-17T08:15:13.553Z,12.40
2023-02-17T08:17:41.017Z,12.41
2023-02-17T08:20:09.508Z,12.41
2023-02-17T08:22:37.416Z,12.42
2023-02-17T08:25:06.401Z,12.42
2023-02-17T08:27:34.689Z,12.47
2023-02-17T08:30:02.731Z,12.48
2023-02-17T08:32:30.230Z,12.47
2023-02-17T08:34:58.021Z,12.53
2023-02-17T08:37:27.171Z,12.66
2023-02-17T08:39:54.781Z,12.65
2023-02-17T08:42:22.330Z,12.63
2023-02-17T08:44:49.731Z,12.59
2023-02-17T08:47:17.181Z,12.63
2023-02-17T08:49:44.836Z,12.64
2023-02-17T08:52:12.327Z,12.67
2023-02-17T08:54:39.997Z,12.75
2023-02-17T08:57:07.545Z,12.74
2023-02-17T08:59:35.387Z,12.70
2023-02-17T09:02:03.224Z,12.75
2023-02-17T09:04:30.822Z,12.67
2023-02-17T09:06:59.117Z,12.72
2023-02-17T09:09:27.761Z,12.68
2023-02-17T09:11:58.837Z,12.70
2023-02-17T09:14:27.512Z,12.71
2023-02-17T09:16:56.295Z,12.72
2023-02-17T09:19:24.446Z,12.74
2023-02-17T09:21:52.192Z,12.75
2023-02-17T09:24:23.250Z,12.79
2023-02-17T09:26:51.110Z,12.83
2023-02-17T09:29:18.581Z,12.95
2023-02-17T09:31:46.575Z,12.96
2023-02-17T09:34:14.623Z,12.99
2023-02-17T09:36:42.805Z,13.03
2023-02-17T09:39:13.473Z,13.09
2023-02-17T09:41:53.396Z,13.17
2023-02-17T09:44:27.028Z,13.19
2023-02-17T09:47:02.658Z,13.31
2023-02-17T09:49:40.123Z,13.43
2023-02-17T09:52:27.716Z,13.48
2023-02-17T09:55:15.315Z,13.57
2023-02-17T09:57:51.491Z,13.61
2023-02-17T10:00:41.094Z,13.64
2023-02-17T10:03:17.385Z,13.72
2023-02-17T10:06:06.689Z,13.78
2023-02-17T10:08:45.736Z,13.76
2023-02-17T10:11:27.779Z,13.74
2023-02-17T10:13:59.788Z,13.75
2023-02-17T10:16:34.514Z,13.81
2023-02-17T10:19:17.793Z,13.90
2023-02-17T10:22:18.484Z,13.94
2023-02-17T10:24:46.238Z,14.02
2023-02-17T10:27:35.439Z,14.15
2023-02-17T10:30:10.389Z,14.21
2023-02-17T10:33:00.499Z,14.35
2023-02-17T10:35:43.253Z,14.37
2023-02-17T10:38:28.824Z,14.39
2023-02-17T10:40:56.656Z,14.40
2023-02-17T10:43:30.077Z,14.43
2023-02-17T10:45:59.945Z,14.43
2023-02-17T10:48:42.488Z,14.48
2023-02-17T10:51:16.150Z,14.50
2023-02-17T10:53:48.266Z,14.56
2023-02-17T10:56:22.961Z,14.62
2023-02-17T10:59:12.155Z,14.80
2023-02-17T11:01:40.071Z,14.94
2023-02-17T11:04:13.406Z,15.06
2023-02-17T11:06:53.405Z,15.15
2023-02-17T11:09:32.949Z,15.19
2023-02-17T11:12:04.240Z,15.21
2023-02-17T11:14:33.806Z,15.28
2023-02-17T11:17:04.396Z,15.39
2023-02-17T11:19:35.256Z,15.57
2023-02-17T11:22:06.120Z,15.70
2023-02-17T11:24:35.464Z,15.77
2023-02-17T11:27:10.279Z,15.87
2023-02-17T11:29:38.234Z,16.02
2023-02-17T11:32:09.273Z,16.17
2023-02-17T11:34:39.792Z,16.27
2023-02-17T11:37:10.102Z,16.31
2023-02-17T11:39:49.566Z,16.41
2023-02-17T11:42:20.716Z,16.36
2023-02-17T11:44:49.010Z,16.39
2023-02-17T11:47:49.038Z,16.45
2023-02-17T11:50:40.062Z,16.62
2023-02-17T11:54:01.860Z,16.77
2023-02-17T11:56:42.857Z,16.89
2023-02-17T11:59:19.444Z,16.96
2023-02-17T12:02:14.504Z,16.98
2023-02-17T12:04:50.742Z,16.88
2023-02-17T12:07:24.904Z,16.99
2023-02-17T12:10:11.093Z,17.01
2023-02-17T12:12:57.601Z,17.03
2023-02-17T12:15:37.116Z,17.14
2023-02-17T12:18:30.002Z,17.22
2023-02-17T12:21:16.304Z,17.48
2023-02-17T12:23:58.894Z,17.77
2023-02-17T12:26:46.710Z,17.94
2023-02-17T12:29:32.289Z,18.11
2023-02-17T12:32:06.008Z,18.22
2023-02-17T12:35:01.423Z,18.30
2023-02-17T12:37:33.325Z,18.49
2023-02-17T12:40:15.497Z,18.55
2023-02-17T12:42:58.171Z,18.63
2023-02-17T12:45:36.769Z,18.60
2023-02-17T12:48:14.804Z,18.43
2023-02-17T12:51:15.783Z,18.48
2023-02-17T12:54:29.016Z,18.52
2023-02-17T12:57:13.717Z,18.49
2023-02-17T12:59:45.298Z,18.78
2023-02-17T13:02:19.304Z,19.05
2023-02-17T13:04:51.298Z,19.17
2023-02-17T13:07:37.093Z,18.74
2023-02-17T13:10:07.525Z,18.22
2023-02-17T13:12:40.555Z,18.04
2023-02-17T13:15:31.362Z,17.74
2023-02-17T13:18:05.738Z,17.48
2023-02-17T13:20:51.621Z,17.17
2023-02-17T13:23:38.176Z,16.95
2023-02-17T13:26:23.942Z,16.85
2023-02-17T13:28:54.857Z,16.69
2023-02-17T13:31:25.495Z,16.51
2023-02-17T13:33:58.770Z,16.42
2023-02-17T13:36:29.219Z,16.53
2023-02-17T13:39:01.832Z,16.62
2023-02-17T13:41:49.042Z,16.49
2023-02-17T13:44:28.908Z,16.47
2023-02-17T13:47:00.752Z,16.45
2023-02-17T13:49:33.076Z,16.41
2023-02-17T13:52:16.413Z,16.45
2023-02-17T13:54:58.815Z,16.41
2023-02-17T13:57:32.471Z,16.28
2023-02-17T14:00:19.582Z,16.32
2023-02-17T14:02:58.302Z,16.35
2023-02-17T14:05:43.691Z,16.42
2023-02-17T14:08:24.442Z,16.48
2023-02-17T14:10:52.997Z,16.47
2023-02-17T14:13:22.731Z,16.52
2023-02-17T14:16:01.737Z,16.57
2023-02-17T14:18:42.180Z,16.63
2023-02-17T14:21:26.098Z,16.61
2023-02-17T14:23:55.810Z,16.60
2023-02-17T14:26:40.165Z,16.66
2023-02-17T14:29:10.036Z,16.70
2023-02-17T14:31:42.854Z,16.69
2023-02-17T14:34:29.502Z,16.63
2023-02-17T14:37:17.423Z,16.62
2023-02-17T14:39:44.989Z,16.59
2023-02-17T14:42:12.409Z,16.53
2023-02-17T14:44:40.103Z,16.53
2023-02-17T14:47:07.499Z,16.45
2023-02-17T14:49:35.133Z,16.45
2023-02-17T14:52:20.000Z,16.44
2023-02-17T14:54:48.046Z,16.46
2023-02-17T14:57:16.862Z,16.50
2023-02-17T14:59:44.617Z,16.53
2023-02-17T15:02:20.725Z,16.49
2023-02-17T15:04:48.195Z,16.44
2023-02-17T15:07:17.668Z,16.38
2023-02-17T15:09:47.066Z,16.34
2023-02-17T15:12:20.121Z,16.35
2023-02-17T15:14:48.481Z,16.37
2023-02-17T15:17:16.618Z,16.42
2023-02-17T15:19:45.017Z,16.47
2023-02-17T15:22:14.055Z,16.55
2023-02-17T15:24:41.799Z,16.48
2023-02-17T15:27:14.879Z,16.46
2023-02-17T15:29:42.464Z,16.46
2023-02-17T15:32:19.083Z,16.45
2023-02-17T15:34:46.981Z,16.42
2023-02-17T15:37:14.522Z,16.45
2023-02-17T15:39:41.931Z,16.46
2023-02-17T15:42:13.914Z,16.43
2023-02-17T15:44:47.002Z,16.37
2023-02-17T15:47:18.222Z,16.33
2023-02-17T15:49:46.620Z,16.30
2023-02-17T15:52:15.064Z,16.24
2023-02-17T15:54:43.823Z,16.19
2023-02-17T15:57:23.833Z,16.12
2023-02-17T15:59:55.050Z,16.08
2023-02-17T16:02:24.212Z,16.05
2023-02-17T16:04:51.590Z,16.02
2023-02-17T16:07:19.046Z,15.99
2023-02-17T16:09:46.520Z,15.97
2023-02-17T16:12:27.013Z,15.97
2023-02-17T16:14:56.979Z,16.01
2023-02-17T16:17:25.474Z,15.97
2023-02-17T16:19:53.081Z,15.96
2023-02-17T16:22:20.490Z,15.91
2023-02-17T16:24:48.129Z,15.91
2023-02-17T16:27:16.814Z,15.91
2023-02-17T16:29:44.486Z,15.88
2023-02-17T16:32:12.896Z,15.79
2023-02-17T16:34:40.787Z,15.75
2023-02-17T16:37:16.245Z,15.69
2023-02-17T16:39:44.454Z,15.65
2023-02-17T16:42:13.278Z,15.63
2023-02-17T16:44:41.369Z,15.67
2023-02-17T16:47:19.495Z,15.59
2023-02-17T16:49:48.177Z,15.51
2023-02-17T16:52:25.364Z,15.49
2023-02-17T16:54:54.240Z,15.47
2023-02-17T16:57:22.249Z,15.45
2023-02-17T16:59:50.018Z,15.41
2023-02-17T17:02:17.495Z,15.38
2023-02-17T17:04:45.063Z,15.41
2023-02-17T17:07:14.300Z,15.38
2023-02-17T17:09:45.090Z,15.35
2023-02-17T17:12:12.939Z,15.30
2023-02-17T17:14:40.318Z,15.26
2023-02-17T17:17:11.546Z,15.25
2023-02-17T17:19:39.196Z,15.46
2023-02-17T17:22:06.695Z,15.46
2023-02-17T17:24:34.254Z,15.35
2023-02-17T17:27:01.609Z,15.26
2023-02-17T17:29:29.178Z,15.24
2023-02-17T17:31:56.894Z,15.24
2023-02-17T17:34:24.475Z,15.15
2023-02-17T17:36:51.893Z,15.15
2023-02-17T17:39:22.731Z,15.17
2023-02-17T17:41:50.661Z,15.11
2023-02-17T17:44:19.028Z,14.98
2023-02-17T17:46:46.624Z,14.91
2023-02-17T17:49:18.760Z,14.96
2023-02-17T17:51:46.500Z,14.94
2023-02-17T17:54:14.140Z,14.85
2023-02-17T17:56:43.460Z,14.77
2023-02-17T17:59:12.948Z,14.58
2023-02-17T18:01:40.767Z,14.57
2023-02-17T18:04:09.395Z,14.57
2023-02-17T18:06:40.789Z,14.54
2023-02-17T18:09:15.149Z,14.48
2023-02-17T18:11:53.321Z,14.41
2023-02-17T18:14:20.925Z,14.41
2023-02-17T18:16:49.205Z,14.48
2023-02-17T18:19:20.146Z,14.44
2023-02-17T18:21:47.975Z,14.43
2023-02-17T18:24:15.544Z,14.45
2023-02-17T18:26:43.091Z,14.40
2023-02-17T18:29:10.523Z,14.32
2023-02-17T18:31:38.179Z,14.29
2023-02-17T18:34:05.602Z,14.29
2023-02-17T18:36:33.111Z,14.26
2023-02-17T18:39:00.577Z,14.11
2023-02-17T18:41:31.093Z,14.00
2023-02-17T18:44:00.667Z,13.93
2023-02-17T18:46:28.548Z,13.82
2023-02-17T18:48:56.478Z,13.83
2023-02-17T18:51:25.999Z,13.72
2023-02-17T18:53:54.815Z,13.69
2023-02-17T18:56:29.035Z,13.62
2023-02-17T18:58:57.251Z,13.57
2023-02-17T19:01:30.952Z,13.52
2023-02-17T19:03:59.474Z,13.51
2023-02-17T19:06:30.567Z,13.51
2023-02-17T19:08:58.982Z,13.57
2023-02-17T19:11:26.574Z,13.56
2023-02-17T19:13:54.119Z,13.47
2023-02-17T19:16:29.707Z,13.38
2023-02-17T19:18:57.942Z,13.40
2023-02-17T19:21:26.019Z,13.45
2023-02-17T19:23:55.063Z,13.36
2023-02-17T19:26:22.836Z,13.32
2023-02-17T19:28:50.440Z,13.19
2023-02-17T19:31:20.261Z,13.25
2023-02-17T19:33:48.166Z,13.33
2023-02-17T19:36:21.671Z,13.22
2023-02-17T19:38:50.986Z,13.23
2023-02-17T19:41:19.472Z,13.34
2023-02-17T19:43:47.095Z,13.19
2023-02-17T19:46:18.245Z,13.15
2023-02-17T19:48:46.320Z,13.12
2023-02-17T19:51:14.368Z,13.05
2023-02-17T19:53:45.898Z,13.04
2023-02-17T19:56:23.444Z,13.05
2023-02-17T19:58:52.542Z,13.02
2023-02-17T20:01:27.878Z,13.00
2023-02-17T20:03:57.569Z,12.95
2023-02-17T20:06:29.334Z,12.88
2023-02-17T20:09:05.108Z,12.87
2023-02-17T20:11:33.217Z,12.87
2023-02-17T20:14:01.722Z,12.88
2023-02-17T20:16:30.447Z,12.88
2023-02-17T20:19:01.256Z,12.98
2023-02-17T20:21:31.410Z,13.00
2023-02-17T20:23:59.852Z,12.98
2023-02-17T20:26:29.958Z,12.92
2023-02-17T20:28:58.904Z,13.01
2023-02-17T20:31:27.055Z,13.15
2023-02-17T20:33:54.929Z,13.09
2023-02-17T20:36:22.434Z,13.11
2023-02-17T20:38:50.611Z,13.07
2023-02-17T20:41:20.217Z,13.09
2023-02-17T20:43:48.315Z,13.11
2023-02-17T20:46:29.285Z,13.12
2023-02-17T20:48:57.264Z,13.21
2023-02-17T20:51:25.038Z,13.19
2023-02-17T20:53:52.575Z,13.17
2023-02-17T20:56:23.172Z,13.10
2023-02-17T20:58:52.027Z,13.13
2023-02-17T21:01:20.078Z,13.16
2023-02-17T21:03:48.163Z,13.18
2023-02-17T21:06:27.870Z,13.24
2023-02-17T21:09:04.764Z,13.24
2023-02-17T21:11:33.216Z,13.21
2023-02-17T21:14:00.793Z,13.30
2023-02-17T21:16:34.130Z,13.11
2023-02-17T21:19:02.328Z,13.15
2023-02-17T21:21:30.815Z,13.01
2023-02-17T21:23:59.561Z,12.99
2023-02-17T21:26:27.735Z,13.00
2023-02-17T21:28:55.380Z,12.90
2023-02-17T21:31:22.853Z,12.83
2023-02-17T21:33:50.346Z,12.81
2023-02-17T21:36:18.547Z,12.82
2023-02-17T21:38:46.871Z,12.63
2023-02-17T21:41:20.559Z,12.53
2023-02-17T21:44:07.087Z,12.42
2023-02-17T21:46:35.045Z,12.49
2023-02-17T21:49:02.505Z,12.47
2023-02-17T21:51:30.847Z,12.45
2023-02-17T21:53:59.433Z,12.56
2023-02-17T21:56:27.015Z,12.61
2023-02-17T21:58:55.823Z,12.52
2023-02-17T22:01:25.994Z,12.54
2023-02-17T22:03:54.081Z,12.51
2023-02-17T22:06:24.977Z,12.53
2023-02-17T22:08:52.487Z,12.63
2023-02-17T22:11:23.483Z,12.47
2023-02-17T22:13:55.461Z,12.53
2023-02-17T22:16:23.837Z,12.54
2023-02-17T22:18:51.678Z,12.50
2023-02-17T22:21:19.209Z,12.38
2023-02-17T22:23:46.673Z,12.42
2023-02-17T22:26:24.832Z,12.34
2023-02-17T22:28:53.498Z,12.34
2023-02-17T22:31:23.823Z,12.28
2023-02-17T22:33:51.593Z,12.32
2023-02-17T22:36:22.618Z,12.33
2023-02-17T22:38:51.148Z,12.42
2023-02-17T22:41:23.916Z,12.36
2023-02-17T22:43:52.414Z,12.35
2023-02-17T22:46:21.840Z,12.38
2023-02-17T22:48:51.282Z,12.29
2023-02-17T22:51:24.802Z,12.28
2023-02-17T22:53:52.533Z,12.27
2023-02-17T22:56:20.946Z,12.37
2023-02-17T22:58:53.930Z,12.41
2023-02-17T23:01:22.009Z,12.39
2023-02-17T23:03:52.957Z,12.46
2023-02-17T23:06:28.130Z,12.37
2023-02-17T23:08:56.557Z,12.32
2023-02-17T23:11:48.749Z,12.31
2023-02-17T23:14:19.858Z,12.36
2023-02-17T23:16:47.638Z,12.34
2023-02-17T23:19:17.574Z,12.32
2023-02-17T23:21:47.130Z,12.36
2023-02-17T23:24:16.806Z,12.36
2023-02-17T23:26:44.563Z,12.43
2023-02-17T23:29:12.030Z,12.39
2023-02-17T23:31:39.920Z,12.44
2023-02-17T23:34:07.979Z,12.39
2023-02-17T23:36:39.966Z,12.36
2023-02-17T23:39:07.822Z,12.33
2023-02-17T23:41:37.208Z,12.35
2023-02-17T23:44:05.737Z,12.42
2023-02-17T23:46:33.663Z,12.44
2023-02-17T23:49:01.234Z,12.44
2023-02-17T23:51:28.658Z,12.43
2023-02-17T23:53:56.272Z,12.33
2023-02-17T23:56:27.295Z,12.27
2023-02-17T23:58:55.045Z,12.34
